Flight Track Log - Related Links

Times and Time Zones

All times are in EDT time to prevent confusion due to time zone crossing. See the SWA1968 flight status page for this flight to view local times or setup timezone preferences in your user account.

Time Position Orientation Groundspeed Altitude Reporting Facility
EDT Latitude Longitude Course Direction KTS MPH feet Rate Location/Type
Sun 02:40:23 PM 28.4000 -81.3000 150° Southeast 151 174 800  Level Orlando TRACON
Sun 02:41:29 PM 28.3500 -81.2667 150° Southeast 204 235 3,200 2,636 Climbing Orlando TRACON
Sun 02:42:35 PM 28.3500 -81.2000 90° East 231 266 6,600 2,887 Climbing Orlando TRACON
Sun 02:43:42 PM 28.3500 -81.1167 90° East 253 291 9,600 2,693 Climbing Orlando TRACON
Sun 02:44:42 PM 28.4000 -81.0500 50° Northeast 255 293 12,300 1,978 Climbing Orlando TRACON
Sun 02:46:47 PM 28.5553 -81.1294 336° Northwest 331 381 15,700 1,751 Climbing Jacksonville Center
Sun 02:47:47 PM 28.6517 -81.1728 338° Northwest 354 407 17,700 2,250 Climbing Jacksonville Center
Sun 02:48:47 PM 28.7483 -81.2231 335° Northwest 364 419 20,200 2,600 Climbing Jacksonville Center
Sun 02:49:47 PM 28.8533 -81.2736 337° Northwest 386 444 22,900 2,500 Climbing Jacksonville Center
Sun 02:50:47 PM 28.9606 -81.3217 339° North 398 458 25,200 1,550 Climbing Jacksonville Center
Sun 02:51:47 PM 29.0656 -81.3744 336° Northwest 403 464 26,000 1,200 Climbing Jacksonville Center
Sun 02:52:47 PM 29.1847 -81.3989 350° North 413 475 27,600 1,650 Climbing Jacksonville Center
Sun 02:53:47 PM 29.3019 -81.4139 354° North 431 496 29,300 1,550 Climbing Jacksonville Center
Sun 02:54:47 PM 29.4250 -81.4239 356° North 431 496 30,700 1,800 Climbing Jacksonville Center
Sun 02:55:47 PM 29.5464 -81.4364 355° North 431 496 32,900 1,950 Climbing Jacksonville Center
Sun 02:56:47 PM 29.6653 -81.4464 356° North 426 490 34,600 1,550 Climbing Jacksonville Center
Sun 02:57:47 PM 29.7864 -81.4422 North 426 490 36,000 1,300 Climbing Jacksonville Center
Sun 02:58:47 PM 29.9069 -81.3903 20° North 438 504 37,200 1,000 Climbing Jacksonville Center
Sun 02:59:47 PM 30.0253 -81.3381 21° North 438 504 38,000 900 Climbing Jacksonville Center
Sun 03:00:47 PM 30.1478 -81.2831 21° North 444 511 39,000 500 Climbing Jacksonville Center
Sun 03:01:47 PM 30.2683 -81.2306 21° North 451 519 39,000  Level Jacksonville Center
Sun 03:02:48 PM 30.3844 -81.1781 21° North 451 519 39,000  Level Jacksonville Center
Sun 03:03:47 PM 30.5214 -81.1200 20° North 456 525 39,000  Level Jacksonville Center
Sun 03:04:47 PM 30.6397 -81.0672 21° North 456 525 39,000  Level Jacksonville Center
Sun 03:05:47 PM 30.7600 -81.0142 21° North 456 525 39,000  Level Jacksonville Center
Sun 03:06:47 PM 30.8783 -80.9611 21° North 456 525 39,000  Level Jacksonville Center
Sun 03:07:47 PM 30.9986 -80.9075 21° North 456 525 39,000  Level Jacksonville Center
Sun 03:08:47 PM 31.1189 -80.8542 21° North 456 525 39,000  Level Jacksonville Center
Sun 03:09:47 PM 31.2369 -80.8006 21° North 444 511 39,000  Level Jacksonville Center
Sun 03:10:47 PM 31.3550 -80.7469 21° North 451 519 39,000  Level Jacksonville Center
Sun 03:11:47 PM 31.4753 -80.6953 20° North 446 513 39,000  Level Jacksonville Center
Sun 03:12:47 PM 31.5933 -80.6414 21° North 451 519 39,000  Level Jacksonville Center
Sun 03:13:47 PM 31.7072 -80.5872 22° Northeast 453 521 39,000  Level Jacksonville Center
Sun 03:14:47 PM 31.8147 -80.5383 21° North 447 514 39,000  Level Jacksonville Center
Sun 03:15:47 PM 31.9431 -80.4786 22° Northeast 447 514 39,000  Level Jacksonville Center
Sun 03:16:47 PM 32.0486 -80.4317 21° North 447 514 39,000  Level Jacksonville Center
Sun 03:17:47 PM 32.1667 -80.3744 22° Northeast 447 514 39,000  Level Jacksonville Center
Sun 03:18:47 PM 32.2844 -80.3222 21° North 447 514 39,000  Level Jacksonville Center
Sun 03:19:47 PM 32.4067 -80.2669 21° North 452 520 39,000  Level Jacksonville Center
Sun 03:20:47 PM 32.5222 -80.2119 22° Northeast 452 520 39,000  Level Jacksonville Center
Sun 03:21:47 PM 32.6378 -80.1494 24° Northeast 452 520 39,000  Level Jacksonville Center
Sun 03:22:47 PM 32.7467 -80.0719 31° Northeast 452 520 39,000  Level Jacksonville Center
Sun 03:23:47 PM 32.8556 -79.9919 32° Northeast 452 520 39,000  Level Jacksonville Center
Sun 03:24:47 PM 32.9686 -79.9139 30° Northeast 458 527 39,000  Level Jacksonville Center
Sun 03:25:47 PM 33.0875 -79.8283 31° Northeast 458 527 39,000  Level Jacksonville Center
Sun 03:26:47 PM 33.1964 -79.7525 30° Northeast 453 521 39,000  Level Jacksonville Center
Sun 03:27:47 PM 33.3050 -79.6792 29° Northeast 453 521 39,000  Level Jacksonville Center
Sun 03:28:47 PM 33.4136 -79.5981 32° Northeast 453 521 39,000  Level Jacksonville Center
Sun 03:29:47 PM 33.5200 -79.5219 31° Northeast 448 516 39,000  Level Jacksonville Center
Sun 03:30:47 PM 33.6286 -79.4453 30° Northeast 448 516 39,000  Level Jacksonville Center
Sun 03:31:47 PM 33.7208 -79.3794 31° Northeast 438 504 39,000  Level Jacksonville Center
Sun 03:32:47 PM 33.8292 -79.3025 31° Northeast 438 504 39,000  Level Jacksonville Center
Sun 03:33:47 PM 33.9478 -79.2175 31° Northeast 443 510 39,000  Level Jacksonville Center
Sun 03:34:47 PM 34.0581 -79.1403 30° Northeast 443 510 39,000  Level Jacksonville Center
Sun 03:37:18 PM 34.3167 -78.9511 31° Northeast 450 518 39,000  Level Washington Center
Sun 03:38:19 PM 34.4247 -78.8850 27° Northeast 444 511 39,000  Level Washington Center
Sun 03:39:17 PM 34.5392 -78.8267 23° Northeast 433 498 39,000  Level Washington Center
Sun 03:40:18 PM 34.6511 -78.7706 22° Northeast 433 498 39,000  Level Washington Center
Sun 03:41:18 PM 34.7781 -78.7097 21° North 433 498 39,000  Level Washington Center
Sun 03:42:19 PM 34.8772 -78.6603 22° Northeast 433 498 39,000  Level Washington Center
Sun 03:43:18 PM 34.9892 -78.6064 22° Northeast 433 498 39,000  Level Washington Center
Sun 03:44:18 PM 35.1014 -78.5494 23° Northeast 438 504 39,000  Level Washington Center
Sun 03:45:19 PM 35.2133 -78.4953 22° Northeast 438 504 39,000  Level Washington Center
Sun 03:46:17 PM 35.3231 -78.4356 24° Northeast 432 497 39,000  Level Washington Center
Sun 03:47:17 PM 35.4478 -78.3686 24° Northeast 432 497 39,000  Level Washington Center
Sun 03:48:18 PM 35.5639 -78.3164 20° North 438 504 39,000  Level Washington Center
Sun 03:49:18 PM 35.6756 -78.2639 21° North 438 504 39,000  Level Washington Center
Sun 03:50:19 PM 35.7853 -78.2089 22° Northeast 432 497 39,000  Level Washington Center
Sun 03:51:17 PM 35.8928 -78.1558 22° Northeast 421 484 39,000 -51 Level Washington Center
Sun 03:52:17 PM 36.0006 -78.1003 23° Northeast 415 478 38,900 -1,091 Descending Washington Center
Sun 03:53:18 PM 36.1058 -78.0472 22° Northeast 415 478 36,800 -2,380 Descending Washington Center
Sun 03:54:18 PM 36.2114 -77.9939 22° Northeast 409 471 34,100 -2,727 Descending Washington Center
Sun 03:55:19 PM 36.3189 -77.9378 23° Northeast 409 471 31,300 -2,370 Descending Washington Center
Sun 03:56:17 PM 36.4053 -77.8939 22° Northeast 414 476 29,400 -1,160 Descending Washington Center
Sun 03:57:18 PM 36.5211 -77.8328 23° Northeast 414 476 29,000 -198 Descending Washington Center
Sun 03:58:18 PM 36.6286 -77.7789 22° Northeast 414 476 29,000  Level Washington Center
Sun 03:59:19 PM 36.7339 -77.7250 22° Northeast 414 476 29,000 -50 Level Washington Center
Sun 04:00:17 PM 36.8411 -77.6681 23° Northeast 414 476 28,900 -655 Descending Washington Center
Sun 04:01:18 PM 36.9592 -77.6064 23° Northeast 414 476 27,700 -934 Descending Washington Center
Sun 04:02:19 PM 37.0622 -77.5544 22° Northeast 404 465 27,000 -857 Descending Washington Center
Sun 04:03:17 PM 37.1611 -77.5022 23° Northeast 392 451 26,000 -1,008 Descending Washington Center
Sun 04:04:18 PM 37.2600 -77.4497 23° Northeast 387 445 25,000 -992 Descending Washington Center
Sun 04:05:18 PM 37.3567 -77.3972 23° Northeast 382 440 24,000 -908 Descending Washington Center
Sun 04:06:17 PM 37.4344 -77.3572 22° Northeast 377 434 23,200 -1,059 Descending Washington Center
Sun 04:07:17 PM 37.5414 -77.3125 18° North 377 434 21,900 -1,091 Descending Washington Center
Sun 04:08:18 PM 37.6397 -77.2911 10° North 366 421 21,000 -443 Descending Washington Center
Sun 04:09:19 PM 37.7381 -77.2725 North 353 406 21,000 -101 Level Washington Center
Sun 04:10:17 PM 37.8364 -77.2508 10° North 353 406 20,800 -605 Descending Washington Center
Sun 04:11:18 PM 37.9347 -77.2294 10° North 353 406 19,800 -1,041 Descending Washington Center
Sun 04:12:18 PM 38.0414 -77.2133 North 353 406 18,700 -942 Descending Washington Center
Sun 04:13:19 PM 38.1208 -77.1939 11° North 353 406 17,900 -958 Descending Washington Center
Sun 04:14:17 PM 38.2339 -77.1672 10° North 353 406 16,800 -1,017 Descending Washington Center
Sun 04:15:17 PM 38.3278 -77.1506 North 348 400 15,900 -950 Descending Washington Center
Sun 04:16:17 PM 38.4139 -77.1075 21° North 342 394 14,900 -1,488 Descending Washington Center
Sun 04:17:18 PM 38.4839 -77.0186 45° Northeast 335 386 12,900 -1,426 Descending Washington Center
Sun 04:18:19 PM 38.5494 -76.9350 45° Northeast 335 386 12,000 -1,210 Descending Washington Center
Sun 04:19:17 PM 38.6128 -76.8592 43° Northeast 321 369 10,500 -1,059 Descending Washington Center
Sun 04:20:18 PM 38.6719 -76.7856 44° Northeast 305 351 9,900 -787 Descending Washington Center
Sun 04:21:19 PM 38.7225 -76.7119 49° Northeast 286 329 8,900 -1,140 Descending Washington Center
Sun 04:22:19 PM 38.7589 -76.6244 62° Northeast 275 316 7,600 -1,400 Descending Washington Center
Sun 04:23:19 PM 38.7969 -76.5400 60° Northeast 270 311 6,100 -1,368 Descending Washington Center
Sun 04:24:35 PM 38.8833 -76.5333 North 247 284 4,500 -964 Descending Potomac TRACON
Sun 04:25:36 PM 38.9500 -76.5333 360° North 225 259 3,900 -645 Descending Potomac TRACON
Sun 04:26:36 PM 39.0167 -76.5500 349° North 202 232 3,200 -600 Descending Potomac TRACON
Sun 04:27:36 PM 39.0667 -76.5667 345° North 171 197 2,700 -684 Descending Potomac TRACON
Sun 04:28:30 PM 39.1000 -76.6000 322° Northwest 166 191 1,900 -900 Descending Potomac TRACON
Sun 04:29:36 PM 39.1333 -76.6333 322° Northwest 147 169 900 -909 Descending Potomac TRACON
Sun 04:31:00 PM 39.1667 -76.6667 339° North  Level FlightAware
Sun 04:38:00 PM 39.1754 -76.6683 339° North  Level Estimated

Login

Don't have an account? Register now (free) for customized features, flight alerts, and more!